sensor_id;sensor_type;location;lat;lon;timestamp;temperature;humidity
70534;SHT31;58088;51.186;17.130;2024-03-06T00:00:20;6.88;69.61
70534;SHT31;58088;51.186;17.130;2024-03-06T00:02:46;6.90;69.60
70534;SHT31;58088;51.186;17.130;2024-03-06T00:05:12;6.94;69.59
70534;SHT31;58088;51.186;17.130;2024-03-06T00:07:38;6.95;69.48
70534;SHT31;58088;51.186;17.130;2024-03-06T00:10:05;6.95;69.47
70534;SHT31;58088;51.186;17.130;2024-03-06T00:12:32;6.97;69.48
70534;SHT31;58088;51.186;17.130;2024-03-06T00:14:59;6.96;69.55
70534;SHT31;58088;51.186;17.130;2024-03-06T00:17:25;6.91;69.60
70534;SHT31;58088;51.186;17.130;2024-03-06T00:19:52;6.88;69.64
70534;SHT31;58088;51.186;17.130;2024-03-06T00:22:18;6.86;69.74
70534;SHT31;58088;51.186;17.130;2024-03-06T00:24:44;6.86;69.76
70534;SHT31;58088;51.186;17.130;2024-03-06T00:27:13;6.86;69.73
70534;SHT31;58088;51.186;17.130;2024-03-06T00:29:39;6.87;69.71
70534;SHT31;58088;51.186;17.130;2024-03-06T00:32:06;6.90;69.63
70534;SHT31;58088;51.186;17.130;2024-03-06T00:34:32;6.92;69.60
70534;SHT31;58088;51.186;17.130;2024-03-06T00:36:59;6.93;69.60
70534;SHT31;58088;51.186;17.130;2024-03-06T00:39:25;6.94;69.60
70534;SHT31;58088;51.186;17.130;2024-03-06T00:41:51;6.94;69.60
70534;SHT31;58088;51.186;17.130;2024-03-06T00:44:18;6.97;69.57
70534;SHT31;58088;51.186;17.130;2024-03-06T00:46:45;6.96;69.53
70534;SHT31;58088;51.186;17.130;2024-03-06T00:49:11;6.93;69.60
70534;SHT31;58088;51.186;17.130;2024-03-06T00:51:37;6.89;69.71
70534;SHT31;58088;51.186;17.130;2024-03-06T00:54:03;6.86;69.80
70534;SHT31;58088;51.186;17.130;2024-03-06T00:56:30;6.85;69.91
70534;SHT31;58088;51.186;17.130;2024-03-06T00:58:56;6.85;69.90
70534;SHT31;58088;51.186;17.130;2024-03-06T01:01:22;6.83;69.84
70534;SHT31;58088;51.186;17.130;2024-03-06T01:03:49;6.83;69.80
70534;SHT31;58088;51.186;17.130;2024-03-06T01:06:15;6.80;69.88
70534;SHT31;58088;51.186;17.130;2024-03-06T01:08:41;6.81;69.90
70534;SHT31;58088;51.186;17.130;2024-03-06T01:11:08;6.80;69.91
70534;SHT31;58088;51.186;17.130;2024-03-06T01:13:36;6.78;69.97
70534;SHT31;58088;51.186;17.130;2024-03-06T01:16:03;6.73;70.08
70534;SHT31;58088;51.186;17.130;2024-03-06T01:18:29;6.70;70.27
70534;SHT31;58088;51.186;17.130;2024-03-06T01:20:55;6.67;70.30
70534;SHT31;58088;51.186;17.130;2024-03-06T01:23:22;6.63;70.36
70534;SHT31;58088;51.186;17.130;2024-03-06T01:25:48;6.62;70.45
70534;SHT31;58088;51.186;17.130;2024-03-06T01:28:19;6.63;70.43
70534;SHT31;58088;51.186;17.130;2024-03-06T01:30:50;6.62;70.47
70534;SHT31;58088;51.186;17.130;2024-03-06T01:33:16;6.63;70.39
70534;SHT31;58088;51.186;17.130;2024-03-06T01:35:43;6.64;70.30
70534;SHT31;58088;51.186;17.130;2024-03-06T01:38:09;6.62;70.28
70534;SHT31;58088;51.186;17.130;2024-03-06T01:40:35;6.54;70.34
70534;SHT31;58088;51.186;17.130;2024-03-06T01:43:02;6.45;70.53
70534;SHT31;58088;51.186;17.130;2024-03-06T01:45:28;6.36;70.64
70534;SHT31;58088;51.186;17.130;2024-03-06T01:47:54;6.30;70.73
70534;SHT31;58088;51.186;17.130;2024-03-06T01:50:21;6.29;70.68
70534;SHT31;58088;51.186;17.130;2024-03-06T01:52:47;6.27;70.63
70534;SHT31;58088;51.186;17.130;2024-03-06T01:55:15;6.24;70.60
70534;SHT31;58088;51.186;17.130;2024-03-06T01:57:41;6.20;70.61
70534;SHT31;58088;51.186;17.130;2024-03-06T02:00:08;6.20;70.57
70534;SHT31;58088;51.186;17.130;2024-03-06T02:02:40;6.19;70.44
70534;SHT31;58088;51.186;17.130;2024-03-06T02:05:08;6.16;70.32
70534;SHT31;58088;51.186;17.130;2024-03-06T02:07:36;6.11;70.25
70534;SHT31;58088;51.186;17.130;2024-03-06T02:10:08;6.08;70.22
70534;SHT31;58088;51.186;17.130;2024-03-06T02:12:39;6.08;70.12
70534;SHT31;58088;51.186;17.130;2024-03-06T02:15:06;6.03;70.05
70534;SHT31;58088;51.186;17.130;2024-03-06T02:17:34;5.96;70.00
70534;SHT31;58088;51.186;17.130;2024-03-06T02:20:01;5.89;70.00
70534;SHT31;58088;51.186;17.130;2024-03-06T02:22:32;5.78;70.12
70534;SHT31;58088;51.186;17.130;2024-03-06T02:24:58;5.71;70.20
70534;SHT31;58088;51.186;17.130;2024-03-06T02:27:25;5.62;70.25
70534;SHT31;58088;51.186;17.130;2024-03-06T02:29:51;5.52;70.35
70534;SHT31;58088;51.186;17.130;2024-03-06T02:32:17;5.42;70.48
70534;SHT31;58088;51.186;17.130;2024-03-06T02:34:43;5.35;70.59
70534;SHT31;58088;51.186;17.130;2024-03-06T02:37:10;5.32;70.60
70534;SHT31;58088;51.186;17.130;2024-03-06T02:39:36;5.26;70.63
70534;SHT31;58088;51.186;17.130;2024-03-06T02:42:03;5.20;70.65
70534;SHT31;58088;51.186;17.130;2024-03-06T02:44:29;5.14;70.68
70534;SHT31;58088;51.186;17.130;2024-03-06T02:46:56;5.07;70.70
70534;SHT31;58088;51.186;17.130;2024-03-06T02:49:22;5.00;70.80
70534;SHT31;58088;51.186;17.130;2024-03-06T02:51:48;4.96;70.88
70534;SHT31;58088;51.186;17.130;2024-03-06T02:54:14;4.96;70.83
70534;SHT31;58088;51.186;17.130;2024-03-06T02:56:40;4.95;70.75
70534;SHT31;58088;51.186;17.130;2024-03-06T02:59:07;4.93;70.68
70534;SHT31;58088;51.186;17.130;2024-03-06T03:04:53;4.86;70.60
70534;SHT31;58088;51.186;17.130;2024-03-06T03:07:19;4.83;70.53
70534;SHT31;58088;51.186;17.130;2024-03-06T03:09:46;4.80;70.50
70534;SHT31;58088;51.186;17.130;2024-03-06T03:12:13;4.77;70.54
70534;SHT31;58088;51.186;17.130;2024-03-06T03:14:41;4.69;70.66
70534;SHT31;58088;51.186;17.130;2024-03-06T03:17:09;4.63;70.78
70534;SHT31;58088;51.186;17.130;2024-03-06T03:19:38;4.55;70.84
70534;SHT31;58088;51.186;17.130;2024-03-06T03:22:06;4.50;70.94
70534;SHT31;58088;51.186;17.130;2024-03-06T03:24:35;4.49;70.92
70534;SHT31;58088;51.186;17.130;2024-03-06T03:27:03;4.48;70.85
70534;SHT31;58088;51.186;17.130;2024-03-06T03:29:30;4.45;70.80
70534;SHT31;58088;51.186;17.130;2024-03-06T03:31:59;4.44;70.80
70534;SHT31;58088;51.186;17.130;2024-03-06T03:34:26;4.41;70.73
70534;SHT31;58088;51.186;17.130;2024-03-06T03:36:54;4.35;70.70
70534;SHT31;58088;51.186;17.130;2024-03-06T03:39:24;4.31;70.67
70534;SHT31;58088;51.186;17.130;2024-03-06T03:41:54;4.28;70.57
70534;SHT31;58088;51.186;17.130;2024-03-06T03:44:21;4.24;70.55
70534;SHT31;58088;51.186;17.130;2024-03-06T03:46:54;4.23;70.45
70534;SHT31;58088;51.186;17.130;2024-03-06T03:49:22;4.15;70.40
70534;SHT31;58088;51.186;17.130;2024-03-06T03:51:51;4.05;70.43
70534;SHT31;58088;51.186;17.130;2024-03-06T03:54:20;3.86;70.82
70534;SHT31;58088;51.186;17.130;2024-03-06T03:56:48;3.74;71.17
70534;SHT31;58088;51.186;17.130;2024-03-06T03:59:16;3.75;71.29
70534;SHT31;58088;51.186;17.130;2024-03-06T04:01:46;3.79;71.14
70534;SHT31;58088;51.186;17.130;2024-03-06T04:04:14;3.70;71.11
70534;SHT31;58088;51.186;17.130;2024-03-06T04:06:42;3.57;71.29
70534;SHT31;58088;51.186;17.130;2024-03-06T04:09:11;3.41;71.46
70534;SHT31;58088;51.186;17.130;2024-03-06T04:11:40;3.30;71.66
70534;SHT31;58088;51.186;17.130;2024-03-06T04:14:07;3.25;71.78
70534;SHT31;58088;51.186;17.130;2024-03-06T04:16:34;3.17;71.84
70534;SHT31;58088;51.186;17.130;2024-03-06T04:19:01;3.21;71.90
70534;SHT31;58088;51.186;17.130;2024-03-06T04:21:29;3.27;71.79
70534;SHT31;58088;51.186;17.130;2024-03-06T04:23:56;3.30;71.57
70534;SHT31;58088;51.186;17.130;2024-03-06T04:26:22;3.32;71.46
70534;SHT31;58088;51.186;17.130;2024-03-06T04:28:48;3.29;71.42
70534;SHT31;58088;51.186;17.130;2024-03-06T04:31:14;3.26;71.41
70534;SHT31;58088;51.186;17.130;2024-03-06T04:33:41;3.26;71.40
70534;SHT31;58088;51.186;17.130;2024-03-06T04:36:08;3.24;71.39
70534;SHT31;58088;51.186;17.130;2024-03-06T04:38:35;3.13;71.66
70534;SHT31;58088;51.186;17.130;2024-03-06T04:41:02;3.03;71.94
70534;SHT31;58088;51.186;17.130;2024-03-06T04:43:28;2.96;72.16
70534;SHT31;58088;51.186;17.130;2024-03-06T04:45:54;2.97;72.20
70534;SHT31;58088;51.186;17.130;2024-03-06T04:48:20;3.02;72.13
70534;SHT31;58088;51.186;17.130;2024-03-06T04:50:46;3.05;71.99
70534;SHT31;58088;51.186;17.130;2024-03-06T04:53:12;3.07;71.82
70534;SHT31;58088;51.186;17.130;2024-03-06T04:55:39;3.09;71.70
70534;SHT31;58088;51.186;17.130;2024-03-06T04:58:05;3.09;71.63
70534;SHT31;58088;51.186;17.130;2024-03-06T05:00:31;3.05;71.83
70534;SHT31;58088;51.186;17.130;2024-03-06T05:02:58;3.01;71.99
70534;SHT31;58088;51.186;17.130;2024-03-06T05:05:24;3.04;71.97
70534;SHT31;58088;51.186;17.130;2024-03-06T05:07:50;3.03;71.90
70534;SHT31;58088;51.186;17.130;2024-03-06T05:10:21;3.04;71.92
70534;SHT31;58088;51.186;17.130;2024-03-06T05:13:08;3.04;71.89
70534;SHT31;58088;51.186;17.130;2024-03-06T05:15:34;3.04;71.73
70534;SHT31;58088;51.186;17.130;2024-03-06T05:18:00;3.03;71.59
70534;SHT31;58088;51.186;17.130;2024-03-06T05:20:26;3.03;71.50
70534;SHT31;58088;51.186;17.130;2024-03-06T05:22:53;3.03;71.44
70534;SHT31;58088;51.186;17.130;2024-03-06T05:25:19;3.06;71.40
70534;SHT31;58088;51.186;17.130;2024-03-06T05:27:46;3.08;71.32
70534;SHT31;58088;51.186;17.130;2024-03-06T05:30:12;3.11;71.26
70534;SHT31;58088;51.186;17.130;2024-03-06T05:32:40;3.13;71.18
70534;SHT31;58088;51.186;17.130;2024-03-06T05:35:07;3.14;71.09
70534;SHT31;58088;51.186;17.130;2024-03-06T05:37:37;3.14;71.00
70534;SHT31;58088;51.186;17.130;2024-03-06T05:40:03;3.10;71.25
70534;SHT31;58088;51.186;17.130;2024-03-06T05:42:30;3.06;71.55
70534;SHT31;58088;51.186;17.130;2024-03-06T05:44:57;3.08;71.70
70534;SHT31;58088;51.186;17.130;2024-03-06T05:47:33;3.16;71.65
70534;SHT31;58088;51.186;17.130;2024-03-06T05:49:59;3.22;71.48
70534;SHT31;58088;51.186;17.130;2024-03-06T05:52:25;3.28;71.32
70534;SHT31;58088;51.186;17.130;2024-03-06T05:54:52;3.33;71.22
70534;SHT31;58088;51.186;17.130;2024-03-06T05:57:18;3.41;71.16
70534;SHT31;58088;51.186;17.130;2024-03-06T05:59:44;3.50;71.09
70534;SHT31;58088;51.186;17.130;2024-03-06T06:02:10;3.61;71.01
70534;SHT31;58088;51.186;17.130;2024-03-06T06:04:36;3.78;70.93
70534;SHT31;58088;51.186;17.130;2024-03-06T06:07:02;3.99;70.88
70534;SHT31;58088;51.186;17.130;2024-03-06T06:09:29;4.22;70.63
70534;SHT31;58088;51.186;17.130;2024-03-06T06:11:55;4.49;70.43
70534;SHT31;58088;51.186;17.130;2024-03-06T06:14:21;4.75;70.14
70534;SHT31;58088;51.186;17.130;2024-03-06T06:16:49;5.01;69.87
70534;SHT31;58088;51.186;17.130;2024-03-06T06:19:15;5.25;69.54
70534;SHT31;58088;51.186;17.130;2024-03-06T06:21:42;5.53;69.30
70534;SHT31;58088;51.186;17.130;2024-03-06T06:24:09;5.72;69.03
70534;SHT31;58088;51.186;17.130;2024-03-06T06:26:35;5.92;68.96
70534;SHT31;58088;51.186;17.130;2024-03-06T06:29:01;6.08;68.54
70534;SHT31;58088;51.186;17.130;2024-03-06T06:31:28;6.24;68.36
70534;SHT31;58088;51.186;17.130;2024-03-06T06:33:54;6.42;68.13
70534;SHT31;58088;51.186;17.130;2024-03-06T06:36:20;6.59;67.88
70534;SHT31;58088;51.186;17.130;2024-03-06T06:38:47;6.75;67.66
70534;SHT31;58088;51.186;17.130;2024-03-06T06:41:14;6.96;67.48
70534;SHT31;58088;51.186;17.130;2024-03-06T06:43:41;7.17;67.10
70534;SHT31;58088;51.186;17.130;2024-03-06T06:46:08;7.44;66.81
70534;SHT31;58088;51.186;17.130;2024-03-06T06:48:34;7.65;66.27
70534;SHT31;58088;51.186;17.130;2024-03-06T06:51:00;7.80;65.73
70534;SHT31;58088;51.186;17.130;2024-03-06T06:53:29;7.85;65.48
70534;SHT31;58088;51.186;17.130;2024-03-06T06:55:56;7.92;65.15
70534;SHT31;58088;51.186;17.130;2024-03-06T06:58:23;8.00;65.23
70534;SHT31;58088;51.186;17.130;2024-03-06T07:00:52;8.17;65.01
70534;SHT31;58088;51.186;17.130;2024-03-06T07:03:19;8.23;64.64
70534;SHT31;58088;51.186;17.130;2024-03-06T07:05:47;8.30;64.43
70534;SHT31;58088;51.186;17.130;2024-03-06T07:08:14;8.30;64.51
70534;SHT31;58088;51.186;17.130;2024-03-06T07:10:40;8.34;64.62
70534;SHT31;58088;51.186;17.130;2024-03-06T07:13:06;8.43;64.44
70534;SHT31;58088;51.186;17.130;2024-03-06T07:15:32;8.47;64.09
70534;SHT31;58088;51.186;17.130;2024-03-06T07:17:59;8.56;64.10
70534;SHT31;58088;51.186;17.130;2024-03-06T07:20:34;8.62;64.02
70534;SHT31;58088;51.186;17.130;2024-03-06T07:23:20;8.74;63.85
70534;SHT31;58088;51.186;17.130;2024-03-06T07:25:46;8.76;63.67
70534;SHT31;58088;51.186;17.130;2024-03-06T07:28:13;8.80;63.87
70534;SHT31;58088;51.186;17.130;2024-03-06T07:30:39;8.85;63.83
70534;SHT31;58088;51.186;17.130;2024-03-06T07:33:06;8.97;63.66
70534;SHT31;58088;51.186;17.130;2024-03-06T07:35:33;9.07;63.35
70534;SHT31;58088;51.186;17.130;2024-03-06T07:38:02;9.13;63.38
70534;SHT31;58088;51.186;17.130;2024-03-06T07:40:30;9.21;63.27
70534;SHT31;58088;51.186;17.130;2024-03-06T07:42:57;9.28;63.14
70534;SHT31;58088;51.186;17.130;2024-03-06T07:45:25;9.32;62.89
70534;SHT31;58088;51.186;17.130;2024-03-06T07:47:52;9.38;62.81
70534;SHT31;58088;51.186;17.130;2024-03-06T07:50:19;9.41;62.69
70534;SHT31;58088;51.186;17.130;2024-03-06T07:52:45;9.44;62.78
70534;SHT31;58088;51.186;17.130;2024-03-06T07:55:12;9.47;62.43
70534;SHT31;58088;51.186;17.130;2024-03-06T07:57:38;9.56;62.47
70534;SHT31;58088;51.186;17.130;2024-03-06T08:00:09;9.61;62.01
70534;SHT31;58088;51.186;17.130;2024-03-06T08:02:45;9.56;61.82
70534;SHT31;58088;51.186;17.130;2024-03-06T08:05:16;9.59;61.93
70534;SHT31;58088;51.186;17.130;2024-03-06T08:07:46;9.58;61.74
70534;SHT31;58088;51.186;17.130;2024-03-06T08:10:13;9.62;61.86
70534;SHT31;58088;51.186;17.130;2024-03-06T08:12:40;9.78;62.07
70534;SHT31;58088;51.186;17.130;2024-03-06T08:15:09;9.88;61.45
70534;SHT31;58088;51.186;17.130;2024-03-06T08:17:41;9.92;61.15
70534;SHT31;58088;51.186;17.130;2024-03-06T08:20:09;10.01;60.74
70534;SHT31;58088;51.186;17.130;2024-03-06T08:22:45;10.03;60.60
70534;SHT31;58088;51.186;17.130;2024-03-06T08:25:12;10.10;60.48
70534;SHT31;58088;51.186;17.130;2024-03-06T08:27:39;10.20;60.40
70534;SHT31;58088;51.186;17.130;2024-03-06T08:30:07;10.31;59.68
70534;SHT31;58088;51.186;17.130;2024-03-06T08:32:35;10.38;59.91
70534;SHT31;58088;51.186;17.130;2024-03-06T08:35:08;10.49;59.92
70534;SHT31;58088;51.186;17.130;2024-03-06T08:37:37;10.58;59.74
70534;SHT31;58088;51.186;17.130;2024-03-06T08:40:07;10.65;59.42
70534;SHT31;58088;51.186;17.130;2024-03-06T08:42:40;10.78;59.35
70534;SHT31;58088;51.186;17.130;2024-03-06T08:45:10;10.80;59.19
70534;SHT31;58088;51.186;17.130;2024-03-06T08:47:37;10.82;59.52
70534;SHT31;58088;51.186;17.130;2024-03-06T08:50:03;10.92;59.30
70534;SHT31;58088;51.186;17.130;2024-03-06T08:52:31;10.87;58.18
70534;SHT31;58088;51.186;17.130;2024-03-06T08:54:57;10.85;58.01
70534;SHT31;58088;51.186;17.130;2024-03-06T08:57:23;10.86;57.73
70534;SHT31;58088;51.186;17.130;2024-03-06T08:59:52;10.85;57.06
70534;SHT31;58088;51.186;17.130;2024-03-06T09:02:19;10.79;56.73
70534;SHT31;58088;51.186;17.130;2024-03-06T09:04:46;10.72;56.89
70534;SHT31;58088;51.186;17.130;2024-03-06T09:07:13;10.73;57.21
70534;SHT31;58088;51.186;17.130;2024-03-06T09:09:40;10.72;57.15
70534;SHT31;58088;51.186;17.130;2024-03-06T09:12:07;10.82;57.59
70534;SHT31;58088;51.186;17.130;2024-03-06T09:14:39;10.93;57.15
70534;SHT31;58088;51.186;17.130;2024-03-06T09:17:06;10.98;56.56
70534;SHT31;58088;51.186;17.130;2024-03-06T09:19:36;11.12;56.46
70534;SHT31;58088;51.186;17.130;2024-03-06T09:22:02;11.15;56.04
70534;SHT31;58088;51.186;17.130;2024-03-06T09:24:30;11.21;55.76
70534;SHT31;58088;51.186;17.130;2024-03-06T09:26:56;11.24;55.85
70534;SHT31;58088;51.186;17.130;2024-03-06T09:29:23;11.32;54.94
70534;SHT31;58088;51.186;17.130;2024-03-06T09:31:49;11.41;54.66
70534;SHT31;58088;51.186;17.130;2024-03-06T09:34:16;11.49;55.32
70534;SHT31;58088;51.186;17.130;2024-03-06T09:36:46;11.50;54.36
70534;SHT31;58088;51.186;17.130;2024-03-06T09:39:15;11.52;53.98
70534;SHT31;58088;51.186;17.130;2024-03-06T09:41:43;11.57;54.17
70534;SHT31;58088;51.186;17.130;2024-03-06T09:44:12;11.62;53.43
70534;SHT31;58088;51.186;17.130;2024-03-06T09:46:45;11.65;53.28
70534;SHT31;58088;51.186;17.130;2024-03-06T09:49:17;11.54;52.96
70534;SHT31;58088;51.186;17.130;2024-03-06T09:51:45;11.40;52.76
70534;SHT31;58088;51.186;17.130;2024-03-06T09:54:16;11.25;52.78
70534;SHT31;58088;51.186;17.130;2024-03-06T09:56:48;11.26;53.81
70534;SHT31;58088;51.186;17.130;2024-03-06T09:59:15;11.21;53.98
70534;SHT31;58088;51.186;17.130;2024-03-06T10:01:49;11.15;54.53
70534;SHT31;58088;51.186;17.130;2024-03-06T10:04:28;11.08;54.34
70534;SHT31;58088;51.186;17.130;2024-03-06T10:06:57;10.96;54.29
70534;SHT31;58088;51.186;17.130;2024-03-06T10:09:26;10.81;54.76
70534;SHT31;58088;51.186;17.130;2024-03-06T10:11:58;10.64;54.79
70534;SHT31;58088;51.186;17.130;2024-03-06T10:14:27;10.50;54.67
70534;SHT31;58088;51.186;17.130;2024-03-06T10:16:58;10.41;55.31
70534;SHT31;58088;51.186;17.130;2024-03-06T10:19:26;10.41;55.78
70534;SHT31;58088;51.186;17.130;2024-03-06T10:21:58;10.35;54.98
70534;SHT31;58088;51.186;17.130;2024-03-06T10:24:25;10.25;55.34
70534;SHT31;58088;51.186;17.130;2024-03-06T10:26:55;10.13;56.08
70534;SHT31;58088;51.186;17.130;2024-03-06T10:29:26;9.96;56.40
70534;SHT31;58088;51.186;17.130;2024-03-06T10:31:56;9.79;56.98
70534;SHT31;58088;51.186;17.130;2024-03-06T10:34:24;9.66;57.43
70534;SHT31;58088;51.186;17.130;2024-03-06T10:36:56;9.47;57.95
70534;SHT31;58088;51.186;17.130;2024-03-06T10:39:24;9.30;58.29
70534;SHT31;58088;51.186;17.130;2024-03-06T10:41:52;9.14;58.66
70534;SHT31;58088;51.186;17.130;2024-03-06T10:44:26;9.03;59.05
70534;SHT31;58088;51.186;17.130;2024-03-06T10:47:07;8.91;59.35
70534;SHT31;58088;51.186;17.130;2024-03-06T10:49:36;8.78;59.67
70534;SHT31;58088;51.186;17.130;2024-03-06T10:52:04;8.73;60.22
70534;SHT31;58088;51.186;17.130;2024-03-06T10:54:34;8.65;60.59
70534;SHT31;58088;51.186;17.130;2024-03-06T10:57:09;8.63;61.03
70534;SHT31;58088;51.186;17.130;2024-03-06T10:59:47;8.60;61.15
70534;SHT31;58088;51.186;17.130;2024-03-06T11:02:15;8.61;61.51
70534;SHT31;58088;51.186;17.130;2024-03-06T11:04:43;8.61;61.62
70534;SHT31;58088;51.186;17.130;2024-03-06T11:07:10;8.58;61.59
70534;SHT31;58088;51.186;17.130;2024-03-06T11:09:37;8.60;61.55
70534;SHT31;58088;51.186;17.130;2024-03-06T11:12:06;8.60;61.99
70534;SHT31;58088;51.186;17.130;2024-03-06T11:14:37;8.66;62.12
70534;SHT31;58088;51.186;17.130;2024-03-06T11:17:09;8.70;61.59
70534;SHT31;58088;51.186;17.130;2024-03-06T11:28:18;8.80;61.28
70534;SHT31;58088;51.186;17.130;2024-03-06T11:36:19;8.96;61.01
70534;SHT31;58088;51.186;17.130;2024-03-06T11:44:17;9.27;60.31
70534;SHT31;58088;51.186;17.130;2024-03-06T11:49:29;9.39;60.56
70534;SHT31;58088;51.186;17.130;2024-03-06T11:52:17;9.51;60.24
70534;SHT31;58088;51.186;17.130;2024-03-06T11:54:44;9.57;59.36
70534;SHT31;58088;51.186;17.130;2024-03-06T11:57:11;9.57;58.75
70534;SHT31;58088;51.186;17.130;2024-03-06T11:59:41;9.59;59.07
70534;SHT31;58088;51.186;17.130;2024-03-06T12:02:08;9.57;58.24
70534;SHT31;58088;51.186;17.130;2024-03-06T12:04:36;9.48;57.99
70534;SHT31;58088;51.186;17.130;2024-03-06T12:07:03;9.43;58.24
70534;SHT31;58088;51.186;17.130;2024-03-06T12:09:34;9.37;58.53
70534;SHT31;58088;51.186;17.130;2024-03-06T12:12:08;9.30;58.46
70534;SHT31;58088;51.186;17.130;2024-03-06T12:14:35;9.30;58.44
70534;SHT31;58088;51.186;17.130;2024-03-06T12:17:02;9.25;58.27
70534;SHT31;58088;51.186;17.130;2024-03-06T12:19:34;9.18;57.93
70534;SHT31;58088;51.186;17.130;2024-03-06T12:22:02;9.15;58.24
70534;SHT31;58088;51.186;17.130;2024-03-06T12:24:30;9.10;58.16
70534;SHT31;58088;51.186;17.130;2024-03-06T12:27:00;9.05;58.42
70534;SHT31;58088;51.186;17.130;2024-03-06T12:29:35;9.04;58.62
70534;SHT31;58088;51.186;17.130;2024-03-06T12:32:15;9.02;58.61
70534;SHT31;58088;51.186;17.130;2024-03-06T12:34:55;8.95;58.96
70534;SHT31;58088;51.186;17.130;2024-03-06T12:37:34;8.90;59.20
70534;SHT31;58088;51.186;17.130;2024-03-06T12:40:02;8.84;59.29
70534;SHT31;58088;51.186;17.130;2024-03-06T12:42:38;8.80;59.56
70534;SHT31;58088;51.186;17.130;2024-03-06T12:45:05;8.81;59.89
70534;SHT31;58088;51.186;17.130;2024-03-06T12:47:32;8.82;59.82
70534;SHT31;58088;51.186;17.130;2024-03-06T12:49:58;8.82;59.94
70534;SHT31;58088;51.186;17.130;2024-03-06T12:52:24;8.87;60.29
70534;SHT31;58088;51.186;17.130;2024-03-06T12:54:51;8.87;60.46
70534;SHT31;58088;51.186;17.130;2024-03-06T12:57:17;8.89;60.53
70534;SHT31;58088;51.186;17.130;2024-03-06T12:59:43;8.84;60.68
70534;SHT31;58088;51.186;17.130;2024-03-06T13:02:09;8.77;60.53
70534;SHT31;58088;51.186;17.130;2024-03-06T13:04:36;8.74;60.68
70534;SHT31;58088;51.186;17.130;2024-03-06T13:07:02;8.73;61.35
70534;SHT31;58088;51.186;17.130;2024-03-06T13:09:29;8.70;61.70
70534;SHT31;58088;51.186;17.130;2024-03-06T13:11:55;8.69;61.81
70534;SHT31;58088;51.186;17.130;2024-03-06T13:14:21;8.72;62.02
70534;SHT31;58088;51.186;17.130;2024-03-06T13:16:47;8.70;62.04
70534;SHT31;58088;51.186;17.130;2024-03-06T13:19:17;8.73;62.29
70534;SHT31;58088;51.186;17.130;2024-03-06T13:21:46;8.73;62.17
70534;SHT31;58088;51.186;17.130;2024-03-06T13:24:13;8.71;62.43
70534;SHT31;58088;51.186;17.130;2024-03-06T13:26:40;8.69;62.69
70534;SHT31;58088;51.186;17.130;2024-03-06T13:29:10;8.70;62.74
70534;SHT31;58088;51.186;17.130;2024-03-06T13:31:36;8.67;62.82
70534;SHT31;58088;51.186;17.130;2024-03-06T13:34:03;8.67;62.96
70534;SHT31;58088;51.186;17.130;2024-03-06T13:36:30;8.68;63.20
70534;SHT31;58088;51.186;17.130;2024-03-06T13:38:56;8.70;63.48
70534;SHT31;58088;51.186;17.130;2024-03-06T13:41:23;8.68;63.48
70534;SHT31;58088;51.186;17.130;2024-03-06T13:43:49;8.65;63.46
70534;SHT31;58088;51.186;17.130;2024-03-06T13:46:15;8.64;63.53
70534;SHT31;58088;51.186;17.130;2024-03-06T13:48:41;8.63;63.73
70534;SHT31;58088;51.186;17.130;2024-03-06T13:51:07;8.61;63.82
70534;SHT31;58088;51.186;17.130;2024-03-06T13:53:34;8.62;63.91
70534;SHT31;58088;51.186;17.130;2024-03-06T13:56:00;8.57;63.88
70534;SHT31;58088;51.186;17.130;2024-03-06T13:58:27;8.54;63.77
70534;SHT31;58088;51.186;17.130;2024-03-06T14:01:02;8.55;63.89
70534;SHT31;58088;51.186;17.130;2024-03-06T14:03:29;8.49;63.73
70534;SHT31;58088;51.186;17.130;2024-03-06T14:05:57;8.43;63.72
70534;SHT31;58088;51.186;17.130;2024-03-06T14:08:26;8.42;63.96
70534;SHT31;58088;51.186;17.130;2024-03-06T14:11:02;8.35;64.12
70534;SHT31;58088;51.186;17.130;2024-03-06T14:13:36;8.32;63.98
70534;SHT31;58088;51.186;17.130;2024-03-06T14:16:03;8.29;63.79
70534;SHT31;58088;51.186;17.130;2024-03-06T14:18:33;8.24;64.03
70534;SHT31;58088;51.186;17.130;2024-03-06T14:20:59;8.23;64.28
70534;SHT31;58088;51.186;17.130;2024-03-06T14:23:26;8.25;64.50
70534;SHT31;58088;51.186;17.130;2024-03-06T14:25:52;8.23;64.42
70534;SHT31;58088;51.186;17.130;2024-03-06T14:28:18;8.21;64.49
70534;SHT31;58088;51.186;17.130;2024-03-06T14:30:44;8.15;64.71
70534;SHT31;58088;51.186;17.130;2024-03-06T14:33:11;8.11;64.93
70534;SHT31;58088;51.186;17.130;2024-03-06T14:35:37;8.08;65.18
70534;SHT31;58088;51.186;17.130;2024-03-06T14:38:03;8.02;65.37
70534;SHT31;58088;51.186;17.130;2024-03-06T14:40:29;7.97;65.58
70534;SHT31;58088;51.186;17.130;2024-03-06T14:42:56;7.93;65.93
70534;SHT31;58088;51.186;17.130;2024-03-06T14:45:22;7.92;66.24
70534;SHT31;58088;51.186;17.130;2024-03-06T14:47:48;7.86;66.53
70534;SHT31;58088;51.186;17.130;2024-03-06T14:50:15;7.82;66.84
70534;SHT31;58088;51.186;17.130;2024-03-06T14:52:42;7.81;67.09
70534;SHT31;58088;51.186;17.130;2024-03-06T14:55:08;7.76;67.09
70534;SHT31;58088;51.186;17.130;2024-03-06T14:57:34;7.71;67.04
70534;SHT31;58088;51.186;17.130;2024-03-06T15:00:01;7.68;67.13
70534;SHT31;58088;51.186;17.130;2024-03-06T15:02:30;7.65;67.21
70534;SHT31;58088;51.186;17.130;2024-03-06T15:04:56;7.63;67.38
70534;SHT31;58088;51.186;17.130;2024-03-06T15:07:23;7.63;67.53
70534;SHT31;58088;51.186;17.130;2024-03-06T15:09:49;7.64;67.64
70534;SHT31;58088;51.186;17.130;2024-03-06T15:12:16;7.63;67.81
70534;SHT31;58088;51.186;17.130;2024-03-06T15:14:42;7.63;68.07
70534;SHT31;58088;51.186;17.130;2024-03-06T15:17:08;7.60;68.23
70534;SHT31;58088;51.186;17.130;2024-03-06T15:19:35;7.54;68.72
70534;SHT31;58088;51.186;17.130;2024-03-06T15:22:03;7.55;68.95
70534;SHT31;58088;51.186;17.130;2024-03-06T15:24:29;7.54;69.15
70534;SHT31;58088;51.186;17.130;2024-03-06T15:26:56;7.51;69.26
70534;SHT31;58088;51.186;17.130;2024-03-06T15:29:22;7.50;69.54
70534;SHT31;58088;51.186;17.130;2024-03-06T15:31:48;7.52;69.75
70534;SHT31;58088;51.186;17.130;2024-03-06T15:34:14;7.50;69.86
70534;SHT31;58088;51.186;17.130;2024-03-06T15:36:41;7.44;69.96
70534;SHT31;58088;51.186;17.130;2024-03-06T15:39:07;7.41;70.14
70534;SHT31;58088;51.186;17.130;2024-03-06T15:41:34;7.39;70.23
70534;SHT31;58088;51.186;17.130;2024-03-06T15:44:00;7.35;70.45
70534;SHT31;58088;51.186;17.130;2024-03-06T15:46:26;7.33;70.54
70534;SHT31;58088;51.186;17.130;2024-03-06T15:48:52;7.32;70.57
70534;SHT31;58088;51.186;17.130;2024-03-06T15:51:19;7.29;70.78
70534;SHT31;58088;51.186;17.130;2024-03-06T15:53:45;7.30;70.95
70534;SHT31;58088;51.186;17.130;2024-03-06T15:56:18;7.33;70.95
70534;SHT31;58088;51.186;17.130;2024-03-06T15:58:50;7.35;71.02